CheckWX is a tool to help pilots better visualize weather data.  It is not intended as a substitute for an official pre-flight weather briefing.

08:55:50 UTC

4A6 METAR
Scottsboro Municipal-Word Field Airport
Scottsboro, Alabama, USA
Current

21 mins ago

K4A6 190835Z AUTO 00000KT 10SM CLR 18/18 A2998 RMK AO2
Observed
May-19 @ 08:35 UTC
Visibility
10 SM
Flight Rules
VFR
Cloud Levels
  • Clear skies
Temperature
18°C / 64°F
Dewpoint
18°C / 64°F
Humidity
100%
Altimeter
29.98" Hg
Pressure
1015.22 hPa
Previous

41 mins ago

K4A6 190815Z AUTO 00000KT 10SM CLR 18/18 A2997 RMK AO2
Observed
May-19 @ 08:15 UTC
Visibility
10 SM
Flight Rules
VFR
Cloud Levels
  • Clear skies
Temperature
18°C / 64°F
Dewpoint
18°C / 64°F
Humidity
100%
Altimeter
29.97" Hg
Pressure
1014.92 hPa
Previous

1 hour ago

K4A6 190755Z AUTO 00000KT 10SM CLR 18/18 A2997 RMK AO2
Observed
May-19 @ 07:55 UTC
Visibility
10 SM
Flight Rules
VFR
Cloud Levels
  • Clear skies
Temperature
18°C / 64°F
Dewpoint
18°C / 64°F
Humidity
100%
Altimeter
29.97" Hg
Pressure
1014.92 hPa